createdAt,value
2019-02-24T00:00:42.137Z,56.13
2019-02-24T00:05:47.979Z,62.55
2019-02-24T00:10:53.867Z,63.10
2019-02-24T00:15:59.704Z,60.85
2019-02-24T00:21:05.560Z,64.15
2019-02-24T00:26:11.422Z,60.17
2019-02-24T00:31:17.277Z,58.65
2019-02-24T00:36:23.161Z,56.02
2019-02-24T00:41:29.006Z,63.35
2019-02-24T00:46:35.166Z,72.32
2019-02-24T00:51:41.279Z,68.28
2019-02-24T00:56:47.352Z,67.80
2019-02-24T01:01:53.522Z,789.73
2019-02-24T01:06:59.779Z,560.00
2019-02-24T01:12:05.858Z,296.82
2019-02-24T01:17:12.051Z,375.10
2019-02-24T01:22:18.329Z,334.50
2019-02-24T01:27:24.526Z,97.55
2019-02-24T01:32:30.564Z,81.87
2019-02-24T01:37:36.447Z,85.57
2019-02-24T01:42:42.300Z,79.27
2019-02-24T01:47:48.257Z,84.03
2019-02-24T01:52:54.103Z,79.50
2019-02-24T01:57:59.955Z,86.10
2019-02-24T02:03:06.014Z,75.00
2019-02-24T02:08:11.937Z,76.28
2019-02-24T02:13:18.006Z,70.62
2019-02-24T02:18:23.923Z,75.37
2019-02-24T02:23:29.800Z,67.00
2019-02-24T02:28:43.610Z,59.60
2019-02-24T02:33:43.333Z,60.00
2019-02-24T02:38:49.179Z,61.00
2019-02-24T02:43:55.025Z,61.83
2019-02-24T02:49:01.247Z,55.83
2019-02-24T02:54:07.256Z,49.03
2019-02-24T02:59:13.100Z,52.13
2019-02-24T03:04:19.026Z,91.70
2019-02-24T03:09:24.925Z,55.33
2019-02-24T03:14:30.782Z,50.12
2019-02-24T03:19:36.690Z,50.00
2019-02-24T03:24:42.547Z,57.30
2019-02-24T03:29:48.407Z,78.22
2019-02-24T03:34:54.272Z,62.98
2019-02-24T03:40:00.275Z,65.50
2019-02-24T03:45:06.873Z,47.20
2019-02-24T03:50:13.649Z,46.02
2019-02-24T03:55:19.501Z,51.70
2019-02-24T04:00:25.393Z,50.80
2019-02-24T04:05:31.532Z,44.53
2019-02-24T04:10:37.914Z,48.13
2019-02-24T04:15:45.007Z,51.05
2019-02-24T04:20:51.017Z,47.78
2019-02-24T04:25:56.995Z,53.73
2019-02-24T04:31:03.168Z,55.40
2019-02-24T04:36:09.509Z,52.20
2019-02-24T04:41:15.762Z,50.92
2019-02-24T04:46:22.168Z,57.27
2019-02-24T04:51:28.451Z,57.85
2019-02-24T04:56:34.585Z,57.65
2019-02-24T05:01:40.773Z,49.70
2019-02-24T05:06:47.387Z,55.17
2019-02-24T05:11:53.798Z,59.27
2019-02-24T05:17:00.050Z,53.13
2019-02-24T05:22:06.241Z,52.80
2019-02-24T05:27:12.478Z,63.20
2019-02-24T05:32:18.673Z,74.60
2019-02-24T05:37:24.947Z,64.43
2019-02-24T05:42:30.793Z,37.27
2019-02-24T05:47:36.653Z,48.43
2019-02-24T05:52:42.828Z,42.37
2019-02-24T05:57:48.891Z,45.27
2019-02-24T06:02:55.187Z,39.17
2019-02-24T06:08:01.387Z,40.33
2019-02-24T06:13:07.574Z,52.30
2019-02-24T06:18:13.708Z,41.50
2019-02-24T06:23:19.579Z,40.73
2019-02-24T06:28:25.455Z,33.87
2019-02-24T06:33:31.312Z,37.87
2019-02-24T06:38:37.223Z,42.83
2019-02-24T06:43:43.074Z,39.63
2019-02-24T06:48:48.929Z,37.43
2019-02-24T06:53:54.848Z,38.33
2019-02-24T06:59:00.747Z,38.30
2019-02-24T07:04:06.689Z,34.20
2019-02-24T07:09:12.563Z,34.77
2019-02-24T07:14:18.436Z,42.23
2019-02-24T07:19:24.297Z,60.77
2019-02-24T07:24:30.148Z,60.10
2019-02-24T07:29:36.019Z,64.47
2019-02-24T07:34:41.872Z,60.07
2019-02-24T07:39:47.782Z,59.83
2019-02-24T07:44:53.633Z,54.07
2019-02-24T07:49:59.479Z,59.40
2019-02-24T07:55:05.458Z,60.50
2019-02-24T08:00:11.381Z,60.60
2019-02-24T08:05:17.222Z,73.93
2019-02-24T08:10:23.074Z,89.20
2019-02-24T08:15:28.933Z,84.92
2019-02-24T08:20:34.776Z,77.78
2019-02-24T08:25:40.638Z,72.03
2019-02-24T08:30:46.516Z,74.37
2019-02-24T08:35:52.476Z,88.72
2019-02-24T08:40:58.335Z,79.03
2019-02-24T08:46:04.185Z,79.35
2019-02-24T08:51:11.518Z,92.53
2019-02-24T08:56:17.448Z,79.87
2019-02-24T09:01:23.314Z,67.60
2019-02-24T09:06:29.173Z,54.00
2019-02-24T09:11:35.033Z,52.33
2019-02-24T09:16:40.932Z,53.58
2019-02-24T09:21:46.802Z,53.13
2019-02-24T09:26:52.657Z,52.60
2019-02-24T09:31:58.575Z,53.08
2019-02-24T09:37:04.557Z,51.02
2019-02-24T09:42:10.486Z,47.98
2019-02-24T09:47:16.333Z,48.20
2019-02-24T09:52:22.184Z,47.15
2019-02-24T09:57:28.049Z,46.90
2019-02-24T10:02:33.949Z,43.35
2019-02-24T10:07:39.825Z,44.40
2019-02-24T10:12:45.745Z,47.98
2019-02-24T10:17:51.557Z,47.70
2019-02-24T10:22:57.484Z,44.63
2019-02-24T10:28:03.345Z,43.48
2019-02-24T10:33:09.209Z,44.33
2019-02-24T10:38:15.077Z,43.52
2019-02-24T10:43:21.111Z,42.43
2019-02-24T10:48:26.963Z,41.10
2019-02-24T10:53:32.832Z,40.20
2019-02-24T10:58:38.690Z,37.60
2019-02-24T11:03:44.559Z,38.23
2019-02-24T11:08:50.449Z,36.68
2019-02-24T11:13:56.274Z,36.73
2019-02-24T11:19:02.201Z,35.63
2019-02-24T11:24:08.074Z,36.83
2019-02-24T11:29:13.939Z,36.98
2019-02-24T11:34:19.847Z,32.40
2019-02-24T11:39:25.706Z,33.30
2019-02-24T11:44:31.591Z,31.42
2019-02-24T11:49:37.442Z,33.02
2019-02-24T11:54:43.307Z,29.77
2019-02-24T11:59:49.162Z,32.63
2019-02-24T12:04:55.012Z,28.55
2019-02-24T12:10:00.986Z,30.05
2019-02-24T12:15:08.010Z,23.62
2019-02-24T12:20:13.981Z,25.23
2019-02-24T12:25:19.857Z,24.60
2019-02-24T12:30:28.163Z,24.85
2019-02-24T12:35:34.098Z,28.45
2019-02-24T12:40:39.998Z,24.70
2019-02-24T12:45:45.855Z,22.15
2019-02-24T12:50:51.710Z,21.82
2019-02-24T12:55:57.567Z,21.93
2019-02-24T13:01:03.602Z,22.55
2019-02-24T13:06:09.473Z,20.37
2019-02-24T13:11:15.329Z,22.35
2019-02-24T13:16:21.193Z,20.17
2019-02-24T13:21:27.042Z,18.00
2019-02-24T13:26:32.928Z,17.70
2019-02-24T13:31:38.776Z,20.55
2019-02-24T13:36:44.642Z,18.15
2019-02-24T13:41:50.501Z,23.83
2019-02-24T13:46:56.355Z,18.62
2019-02-24T13:52:02.194Z,22.13
2019-02-24T13:57:08.130Z,16.07
2019-02-24T14:02:14.114Z,16.93
2019-02-24T14:07:19.967Z,16.52
2019-02-24T14:12:25.975Z,17.37
2019-02-24T14:17:31.889Z,18.27
2019-02-24T14:22:37.738Z,16.00
2019-02-24T14:27:43.762Z,17.95
2019-02-24T14:32:49.962Z,16.40
2019-02-24T14:37:55.833Z,28.32
2019-02-24T14:43:01.778Z,35.98
2019-02-24T14:48:07.657Z,30.43
2019-02-24T14:53:13.514Z,28.02
2019-02-24T14:58:19.480Z,31.05
2019-02-24T15:03:25.352Z,34.63
2019-02-24T15:08:31.294Z,28.75
2019-02-24T15:13:37.192Z,31.82
2019-02-24T15:18:43.082Z,34.00
2019-02-24T15:23:48.940Z,32.70
2019-02-24T15:28:54.797Z,29.07
2019-02-24T15:34:00.681Z,30.88
2019-02-24T15:39:07.409Z,32.60
2019-02-24T15:44:13.268Z,32.23
2019-02-24T15:49:19.202Z,25.52
2019-02-24T15:54:25.093Z,25.77
2019-02-24T15:59:31.023Z,29.07
2019-02-24T16:04:36.891Z,33.42
2019-02-24T16:09:42.801Z,33.13
2019-02-24T16:14:48.662Z,33.70
2019-02-24T16:19:54.593Z,28.12
2019-02-24T16:25:00.456Z,33.48
2019-02-24T16:30:06.664Z,25.50
2019-02-24T16:35:13.419Z,29.82
2019-02-24T16:40:19.718Z,30.48
2019-02-24T16:45:25.672Z,25.92
2019-02-24T16:50:31.726Z,28.80
2019-02-24T16:55:37.663Z,28.02
2019-02-24T17:00:43.530Z,26.23
2019-02-24T17:05:49.412Z,26.75
2019-02-24T17:10:55.590Z,27.27
2019-02-24T17:16:01.464Z,28.20
2019-02-24T17:21:07.341Z,23.95
2019-02-24T17:26:13.199Z,27.45
2019-02-24T17:31:27.907Z,26.85
2019-02-24T17:36:26.660Z,23.12
2019-02-24T17:41:32.540Z,27.95
2019-02-24T17:46:38.622Z,29.72
2019-02-24T17:51:44.501Z,30.52
2019-02-24T17:56:50.360Z,27.87
2019-02-24T18:01:56.256Z,30.72
2019-02-24T18:07:02.106Z,30.00
2019-02-24T18:12:07.998Z,30.97
2019-02-24T18:17:13.844Z,33.73
2019-02-24T18:22:19.716Z,43.35
2019-02-24T18:27:25.647Z,30.23
2019-02-24T18:32:32.213Z,30.55
2019-02-24T18:37:38.153Z,24.23
2019-02-24T18:42:44.117Z,28.57
2019-02-24T18:47:50.001Z,39.75
2019-02-24T18:52:55.841Z,39.38
2019-02-24T18:58:01.716Z,31.30
2019-02-24T19:03:07.575Z,42.15
2019-02-24T19:08:15.282Z,90.95
2019-02-24T19:13:21.310Z,73.62
2019-02-24T19:18:27.429Z,118.75
2019-02-24T19:23:33.308Z,67.58
2019-02-24T19:28:39.452Z,64.87
2019-02-24T19:33:45.496Z,63.13
2019-02-24T19:38:51.382Z,49.45
2019-02-24T19:43:57.246Z,58.85
2019-02-24T19:49:03.101Z,72.42
2019-02-24T19:54:08.944Z,61.40
2019-02-24T19:59:14.972Z,57.90
2019-02-24T20:04:20.838Z,64.12
2019-02-24T20:09:26.750Z,54.10
2019-02-24T20:14:32.642Z,90.25
2019-02-24T20:19:38.526Z,116.62
2019-02-24T20:24:44.477Z,114.15
2019-02-24T20:29:50.355Z,155.03
2019-02-24T20:34:56.219Z,128.75
2019-02-24T20:40:02.120Z,81.47
2019-02-24T20:45:08.995Z,76.55
2019-02-24T20:50:16.727Z,79.87
2019-02-24T20:55:22.684Z,94.55
2019-02-24T21:00:31.528Z,73.10
2019-02-24T21:05:37.409Z,123.30
2019-02-24T21:10:43.355Z,68.95
2019-02-24T21:15:49.237Z,45.78
2019-02-24T21:20:55.152Z,42.10
2019-02-24T21:26:01.010Z,35.80
2019-02-24T21:31:06.869Z,44.27
2019-02-24T21:36:16.699Z,46.33
2019-02-24T21:41:22.784Z,52.35
2019-02-24T21:46:28.673Z,69.80
2019-02-24T21:51:34.532Z,72.87
2019-02-24T21:56:40.508Z,131.52
2019-02-24T22:01:46.388Z,105.22
2019-02-24T22:06:52.241Z,111.83
2019-02-24T22:11:58.099Z,56.25
2019-02-24T22:17:04.021Z,62.75
2019-02-24T22:22:10.040Z,57.48
2019-02-24T22:27:15.887Z,55.70
2019-02-24T22:32:21.755Z,57.75
2019-02-24T22:37:27.633Z,69.32
2019-02-24T22:42:33.912Z,93.40
2019-02-24T22:47:39.750Z,82.78
2019-02-24T22:52:46.061Z,74.92
2019-02-24T22:57:51.951Z,59.42
2019-02-24T23:02:57.830Z,51.37
2019-02-24T23:08:03.797Z,46.08
2019-02-24T23:13:09.638Z,53.92
2019-02-24T23:18:15.642Z,43.10
2019-02-24T23:23:21.554Z,56.35
2019-02-24T23:28:27.449Z,60.20
2019-02-24T23:33:33.302Z,59.13
2019-02-24T23:38:39.170Z,38.33
2019-02-24T23:43:45.071Z,35.23
2019-02-24T23:48:50.927Z,31.93
2019-02-24T23:53:56.845Z,32.05
2019-02-24T23:59:02.710Z,30.02
